sensor_id;sensor_type;location;lat;lon;timestamp;P1;durP1;ratioP1;P2;durP2;ratioP2
15679;SDS011;15488;48.114;11.532;2024-03-23T00:54:42;3.80;;;2.00;;
15679;SDS011;15488;48.114;11.532;2024-03-23T00:57:09;1.70;;;1.47;;
15679;SDS011;15488;48.114;11.532;2024-03-23T00:59:36;2.37;;;1.53;;
15679;SDS011;15488;48.114;11.532;2024-03-23T01:02:03;1.63;;;1.47;;
15679;SDS011;15488;48.114;11.532;2024-03-23T01:04:31;3.50;;;2.00;;
15679;SDS011;15488;48.114;11.532;2024-03-23T01:06:58;2.50;;;1.50;;
15679;SDS011;15488;48.114;11.532;2024-03-23T01:09:26;1.57;;;1.47;;
15679;SDS011;15488;48.114;11.532;2024-03-23T01:11:54;4.27;;;1.70;;
15679;SDS011;15488;48.114;11.532;2024-03-23T01:14:21;1.93;;;1.60;;
15679;SDS011;15488;48.114;11.532;2024-03-23T01:16:48;2.93;;;1.60;;
15679;SDS011;15488;48.114;11.532;2024-03-23T01:19:16;3.17;;;1.57;;
15679;SDS011;15488;48.114;11.532;2024-03-23T01:21:43;2.20;;;1.50;;
15679;SDS011;15488;48.114;11.532;2024-03-23T01:24:10;3.10;;;1.70;;
15679;SDS011;15488;48.114;11.532;2024-03-23T01:26:37;1.70;;;1.47;;
15679;SDS011;15488;48.114;11.532;2024-03-23T01:29:06;1.47;;;1.37;;
15679;SDS011;15488;48.114;11.532;2024-03-23T01:31:33;1.90;;;1.47;;
15679;SDS011;15488;48.114;11.532;2024-03-23T01:34:01;2.80;;;1.60;;
15679;SDS011;15488;48.114;11.532;2024-03-23T01:36:28;1.70;;;1.60;;
15679;SDS011;15488;48.114;11.532;2024-03-23T01:38:56;2.10;;;1.67;;
15679;SDS011;15488;48.114;11.532;2024-03-23T01:41:23;2.33;;;1.80;;
15679;SDS011;15488;48.114;11.532;2024-03-23T01:43:51;2.37;;;1.47;;
15679;SDS011;15488;48.114;11.532;2024-03-23T01:46:21;1.97;;;1.60;;
15679;SDS011;15488;48.114;11.532;2024-03-23T01:48:49;2.43;;;1.37;;
15679;SDS011;15488;48.114;11.532;2024-03-23T01:51:16;1.70;;;1.50;;
15679;SDS011;15488;48.114;11.532;2024-03-23T01:53:44;2.20;;;1.30;;
15679;SDS011;15488;48.114;11.532;2024-03-23T01:56:11;2.83;;;1.50;;
15679;SDS011;15488;48.114;11.532;2024-03-23T01:58:39;1.83;;;1.63;;
15679;SDS011;15488;48.114;11.532;2024-03-23T02:01:06;2.43;;;1.60;;
15679;SDS011;15488;48.114;11.532;2024-03-23T02:03:35;1.73;;;1.57;;
15679;SDS011;15488;48.114;11.532;2024-03-23T02:06:02;1.93;;;1.43;;
15679;SDS011;15488;48.114;11.532;2024-03-23T02:08:32;3.03;;;1.50;;
15679;SDS011;15488;48.114;11.532;2024-03-23T02:10:59;2.80;;;1.63;;
15679;SDS011;15488;48.114;11.532;2024-03-23T02:13:27;2.03;;;1.83;;
15679;SDS011;15488;48.114;11.532;2024-03-23T02:15:54;2.87;;;1.60;;
15679;SDS011;15488;48.114;11.532;2024-03-23T02:18:22;1.80;;;1.40;;
15679;SDS011;15488;48.114;11.532;2024-03-23T02:20:50;1.97;;;1.50;;
15679;SDS011;15488;48.114;11.532;2024-03-23T02:23:19;2.30;;;1.47;;
15679;SDS011;15488;48.114;11.532;2024-03-23T02:25:46;2.70;;;1.67;;
15679;SDS011;15488;48.114;11.532;2024-03-23T02:28:13;1.97;;;1.50;;
15679;SDS011;15488;48.114;11.532;2024-03-23T02:30:40;1.60;;;1.40;;
15679;SDS011;15488;48.114;11.532;2024-03-23T02:33:08;2.17;;;1.50;;
15679;SDS011;15488;48.114;11.532;2024-03-23T02:35:34;2.33;;;1.80;;
15679;SDS011;15488;48.114;11.532;2024-03-23T02:38:02;2.57;;;1.50;;
15679;SDS011;15488;48.114;11.532;2024-03-23T02:40:30;2.70;;;1.60;;
15679;SDS011;15488;48.114;11.532;2024-03-23T02:42:58;1.90;;;1.60;;
15679;SDS011;15488;48.114;11.532;2024-03-23T02:45:25;1.97;;;1.67;;
15679;SDS011;15488;48.114;11.532;2024-03-23T02:47:53;2.20;;;1.90;;
15679;SDS011;15488;48.114;11.532;2024-03-23T02:50:19;1.67;;;1.40;;
15679;SDS011;15488;48.114;11.532;2024-03-23T02:52:47;2.23;;;1.60;;
15679;SDS011;15488;48.114;11.532;2024-03-23T02:55:14;1.83;;;1.60;;
15679;SDS011;15488;48.114;11.532;2024-03-23T02:57:43;2.33;;;1.60;;
15679;SDS011;15488;48.114;11.532;2024-03-23T03:00:10;2.27;;;1.60;;
15679;SDS011;15488;48.114;11.532;2024-03-23T03:02:39;1.70;;;1.60;;
15679;SDS011;15488;48.114;11.532;2024-03-23T03:05:06;1.73;;;1.60;;
15679;SDS011;15488;48.114;11.532;2024-03-23T03:07:34;2.43;;;1.93;;
15679;SDS011;15488;48.114;11.532;2024-03-23T03:10:04;2.13;;;1.70;;
15679;SDS011;15488;48.114;11.532;2024-03-23T03:12:35;2.93;;;1.97;;
15679;SDS011;15488;48.114;11.532;2024-03-23T03:15:04;2.27;;;2.03;;
15679;SDS011;15488;48.114;11.532;2024-03-23T03:17:33;2.37;;;2.10;;
15679;SDS011;15488;48.114;11.532;2024-03-23T03:20:00;3.00;;;2.10;;
15679;SDS011;15488;48.114;11.532;2024-03-23T03:22:29;2.57;;;2.03;;
15679;SDS011;15488;48.114;11.532;2024-03-23T03:24:56;2.20;;;2.00;;
15679;SDS011;15488;48.114;11.532;2024-03-23T03:27:25;2.53;;;2.10;;
15679;SDS011;15488;48.114;11.532;2024-03-23T03:29:52;3.00;;;1.93;;
15679;SDS011;15488;48.114;11.532;2024-03-23T03:32:21;3.53;;;2.23;;
15679;SDS011;15488;48.114;11.532;2024-03-23T03:34:47;3.67;;;2.07;;
15679;SDS011;15488;48.114;11.532;2024-03-23T03:37:15;3.43;;;1.90;;
15679;SDS011;15488;48.114;11.532;2024-03-23T03:39:42;3.90;;;2.33;;
15679;SDS011;15488;48.114;11.532;2024-03-23T03:42:10;2.90;;;2.23;;
15679;SDS011;15488;48.114;11.532;2024-03-23T03:44:36;3.20;;;2.50;;
15679;SDS011;15488;48.114;11.532;2024-03-23T03:47:05;1.90;;;1.70;;
15679;SDS011;15488;48.114;11.532;2024-03-23T03:49:33;3.03;;;2.23;;
15679;SDS011;15488;48.114;11.532;2024-03-23T03:52:01;2.30;;;2.10;;
15679;SDS011;15488;48.114;11.532;2024-03-23T03:54:27;2.93;;;1.90;;
15679;SDS011;15488;48.114;11.532;2024-03-23T03:56:55;2.47;;;2.10;;
15679;SDS011;15488;48.114;11.532;2024-03-23T03:59:22;3.60;;;2.07;;
15679;SDS011;15488;48.114;11.532;2024-03-23T04:01:50;2.93;;;2.07;;
15679;SDS011;15488;48.114;11.532;2024-03-23T04:04:16;2.00;;;1.80;;
15679;SDS011;15488;48.114;11.532;2024-03-23T04:06:47;1.97;;;1.77;;
15679;SDS011;15488;48.114;11.532;2024-03-23T04:09:14;2.60;;;2.10;;
15679;SDS011;15488;48.114;11.532;2024-03-23T04:11:42;3.67;;;2.00;;
15679;SDS011;15488;48.114;11.532;2024-03-23T04:14:08;2.07;;;1.73;;
15679;SDS011;15488;48.114;11.532;2024-03-23T04:16:36;2.57;;;1.90;;
15679;SDS011;15488;48.114;11.532;2024-03-23T04:19:03;2.20;;;1.73;;
15679;SDS011;15488;48.114;11.532;2024-03-23T04:21:32;2.20;;;1.90;;
15679;SDS011;15488;48.114;11.532;2024-03-23T04:24:00;2.73;;;1.77;;
15679;SDS011;15488;48.114;11.532;2024-03-23T04:26:28;3.13;;;2.07;;
15679;SDS011;15488;48.114;11.532;2024-03-23T04:28:55;2.47;;;1.60;;
15679;SDS011;15488;48.114;11.532;2024-03-23T04:31:22;2.20;;;1.57;;
15679;SDS011;15488;48.114;11.532;2024-03-23T04:33:49;2.13;;;1.70;;
15679;SDS011;15488;48.114;11.532;2024-03-23T04:36:17;1.63;;;1.53;;
15679;SDS011;15488;48.114;11.532;2024-03-23T04:38:46;2.63;;;1.67;;
15679;SDS011;15488;48.114;11.532;2024-03-23T04:41:16;1.60;;;1.50;;
15679;SDS011;15488;48.114;11.532;2024-03-23T04:43:44;1.73;;;1.57;;
15679;SDS011;15488;48.114;11.532;2024-03-23T04:46:12;1.90;;;1.40;;
15679;SDS011;15488;48.114;11.532;2024-03-23T04:48:40;2.73;;;1.50;;
15679;SDS011;15488;48.114;11.532;2024-03-23T04:51:09;1.53;;;1.30;;
15679;SDS011;15488;48.114;11.532;2024-03-23T04:53:38;2.10;;;1.53;;
15679;SDS011;15488;48.114;11.532;2024-03-23T04:56:05;1.50;;;1.40;;
15679;SDS011;15488;48.114;11.532;2024-03-23T04:58:34;3.93;;;1.93;;
15679;SDS011;15488;48.114;11.532;2024-03-23T05:01:01;2.63;;;1.70;;
15679;SDS011;15488;48.114;11.532;2024-03-23T05:03:29;1.40;;;1.30;;
15679;SDS011;15488;48.114;11.532;2024-03-23T05:05:56;1.50;;;1.23;;
15679;SDS011;15488;48.114;11.532;2024-03-23T05:08:24;3.53;;;1.47;;
15679;SDS011;15488;48.114;11.532;2024-03-23T05:10:50;1.40;;;1.30;;
15679;SDS011;15488;48.114;11.532;2024-03-23T05:13:18;1.50;;;1.40;;
15679;SDS011;15488;48.114;11.532;2024-03-23T05:15:51;3.53;;;1.63;;
15679;SDS011;15488;48.114;11.532;2024-03-23T05:18:19;3.50;;;1.80;;
15679;SDS011;15488;48.114;11.532;2024-03-23T05:20:46;1.70;;;1.60;;
15679;SDS011;15488;48.114;11.532;2024-03-23T05:23:14;1.90;;;1.60;;
15679;SDS011;15488;48.114;11.532;2024-03-23T05:25:40;1.67;;;1.57;;
15679;SDS011;15488;48.114;11.532;2024-03-23T05:28:08;2.70;;;1.70;;
15679;SDS011;15488;48.114;11.532;2024-03-23T05:30:35;3.30;;;1.80;;
15679;SDS011;15488;48.114;11.532;2024-03-23T05:33:04;2.90;;;1.80;;
15679;SDS011;15488;48.114;11.532;2024-03-23T05:35:32;3.27;;;1.87;;
15679;SDS011;15488;48.114;11.532;2024-03-23T05:37:59;2.10;;;1.90;;
15679;SDS011;15488;48.114;11.532;2024-03-23T05:40:26;2.30;;;1.90;;
15679;SDS011;15488;48.114;11.532;2024-03-23T05:42:54;2.00;;;1.80;;
15679;SDS011;15488;48.114;11.532;2024-03-23T05:45:21;1.77;;;1.60;;
15679;SDS011;15488;48.114;11.532;2024-03-23T05:47:49;3.70;;;2.07;;
15679;SDS011;15488;48.114;11.532;2024-03-23T05:50:17;2.90;;;1.87;;
15679;SDS011;15488;48.114;11.532;2024-03-23T05:52:45;2.30;;;1.67;;
15679;SDS011;15488;48.114;11.532;2024-03-23T05:55:12;1.70;;;1.60;;
15679;SDS011;15488;48.114;11.532;2024-03-23T05:57:39;2.27;;;2.07;;
15679;SDS011;15488;48.114;11.532;2024-03-23T06:00:06;2.23;;;1.40;;
15679;SDS011;15488;48.114;11.532;2024-03-23T06:02:41;1.90;;;1.57;;
15679;SDS011;15488;48.114;11.532;2024-03-23T06:05:09;2.93;;;1.30;;
15679;SDS011;15488;48.114;11.532;2024-03-23T06:07:38;1.50;;;1.40;;
15679;SDS011;15488;48.114;11.532;2024-03-23T06:10:05;2.20;;;1.37;;
15679;SDS011;15488;48.114;11.532;2024-03-23T06:12:34;1.70;;;1.03;;
15679;SDS011;15488;48.114;11.532;2024-03-23T06:15:02;2.17;;;1.13;;
15679;SDS011;15488;48.114;11.532;2024-03-23T06:17:30;1.40;;;1.20;;
15679;SDS011;15488;48.114;11.532;2024-03-23T06:19:58;1.70;;;1.30;;
15679;SDS011;15488;48.114;11.532;2024-03-23T06:22:26;1.43;;;1.17;;
15679;SDS011;15488;48.114;11.532;2024-03-23T06:24:54;2.47;;;1.10;;
15679;SDS011;15488;48.114;11.532;2024-03-23T06:27:22;1.43;;;1.03;;
15679;SDS011;15488;48.114;11.532;2024-03-23T06:29:48;1.90;;;1.10;;
15679;SDS011;15488;48.114;11.532;2024-03-23T06:32:16;2.10;;;1.10;;
15679;SDS011;15488;48.114;11.532;2024-03-23T06:34:43;1.47;;;1.10;;
15679;SDS011;15488;48.114;11.532;2024-03-23T06:37:11;1.07;;;1.00;;
15679;SDS011;15488;48.114;11.532;2024-03-23T06:39:38;2.13;;;1.20;;
15679;SDS011;15488;48.114;11.532;2024-03-23T06:42:07;3.00;;;1.20;;
15679;SDS011;15488;48.114;11.532;2024-03-23T06:44:37;2.00;;;1.20;;
15679;SDS011;15488;48.114;11.532;2024-03-23T06:47:05;1.30;;;1.20;;
15679;SDS011;15488;48.114;11.532;2024-03-23T06:49:32;2.20;;;1.20;;
15679;SDS011;15488;48.114;11.532;2024-03-23T06:52:00;1.30;;;1.17;;
15679;SDS011;15488;48.114;11.532;2024-03-23T06:54:26;2.40;;;1.20;;
15679;SDS011;15488;48.114;11.532;2024-03-23T06:56:54;1.77;;;1.23;;
15679;SDS011;15488;48.114;11.532;2024-03-23T06:59:22;1.63;;;1.33;;
15679;SDS011;15488;48.114;11.532;2024-03-23T07:01:50;1.73;;;1.40;;
15679;SDS011;15488;48.114;11.532;2024-03-23T07:04:17;4.13;;;1.37;;
15679;SDS011;15488;48.114;11.532;2024-03-23T07:06:45;2.17;;;1.20;;
15679;SDS011;15488;48.114;11.532;2024-03-23T07:09:12;2.50;;;1.40;;
15679;SDS011;15488;48.114;11.532;2024-03-23T07:11:39;2.13;;;1.20;;
15679;SDS011;15488;48.114;11.532;2024-03-23T07:14:06;2.20;;;1.27;;
15679;SDS011;15488;48.114;11.532;2024-03-23T07:16:35;2.00;;;1.80;;
15679;SDS011;15488;48.114;11.532;2024-03-23T07:19:02;3.10;;;1.37;;
15679;SDS011;15488;48.114;11.532;2024-03-23T07:21:30;1.60;;;1.30;;
15679;SDS011;15488;48.114;11.532;2024-03-23T07:23:56;3.10;;;1.50;;
15679;SDS011;15488;48.114;11.532;2024-03-23T07:26:24;2.43;;;1.20;;
15679;SDS011;15488;48.114;11.532;2024-03-23T07:28:51;2.23;;;1.37;;
15679;SDS011;15488;48.114;11.532;2024-03-23T07:31:19;1.60;;;1.37;;
15679;SDS011;15488;48.114;11.532;2024-03-23T07:33:48;2.80;;;1.40;;
15679;SDS011;15488;48.114;11.532;2024-03-23T07:36:16;2.43;;;1.27;;
15679;SDS011;15488;48.114;11.532;2024-03-23T07:38:43;1.50;;;1.30;;
15679;SDS011;15488;48.114;11.532;2024-03-23T07:41:11;2.33;;;1.40;;
15679;SDS011;15488;48.114;11.532;2024-03-23T07:43:42;2.20;;;1.40;;
15679;SDS011;15488;48.114;11.532;2024-03-23T07:46:10;1.80;;;1.50;;
15679;SDS011;15488;48.114;11.532;2024-03-23T07:48:37;3.47;;;1.97;;
15679;SDS011;15488;48.114;11.532;2024-03-23T07:51:09;2.33;;;1.80;;
15679;SDS011;15488;48.114;11.532;2024-03-23T07:53:37;2.03;;;1.60;;
15679;SDS011;15488;48.114;11.532;2024-03-23T07:56:05;2.23;;;1.50;;
15679;SDS011;15488;48.114;11.532;2024-03-23T07:58:33;1.50;;;1.40;;
15679;SDS011;15488;48.114;11.532;2024-03-23T08:01:04;1.57;;;1.40;;
15679;SDS011;15488;48.114;11.532;2024-03-23T08:03:34;2.37;;;1.73;;
15679;SDS011;15488;48.114;11.532;2024-03-23T08:06:09;1.70;;;1.60;;
15679;SDS011;15488;48.114;11.532;2024-03-23T08:08:37;1.60;;;1.50;;
15679;SDS011;15488;48.114;11.532;2024-03-23T08:11:05;1.37;;;1.27;;
15679;SDS011;15488;48.114;11.532;2024-03-23T08:13:33;1.37;;;1.27;;
15679;SDS011;15488;48.114;11.532;2024-03-23T08:16:00;2.63;;;1.57;;
15679;SDS011;15488;48.114;11.532;2024-03-23T08:18:29;1.90;;;1.33;;
15679;SDS011;15488;48.114;11.532;2024-03-23T08:20:57;3.27;;;1.60;;
15679;SDS011;15488;48.114;11.532;2024-03-23T08:23:26;2.77;;;1.70;;
15679;SDS011;15488;48.114;11.532;2024-03-23T08:25:57;1.83;;;1.33;;
15679;SDS011;15488;48.114;11.532;2024-03-23T08:28:25;1.97;;;1.50;;
15679;SDS011;15488;48.114;11.532;2024-03-23T08:30:52;2.53;;;1.40;;
15679;SDS011;15488;48.114;11.532;2024-03-23T08:33:20;1.43;;;1.30;;
15679;SDS011;15488;48.114;11.532;2024-03-23T08:35:53;1.87;;;1.60;;
15679;SDS011;15488;48.114;11.532;2024-03-23T08:38:21;1.83;;;1.30;;
15679;SDS011;15488;48.114;11.532;2024-03-23T08:40:53;1.67;;;1.30;;
15679;SDS011;15488;48.114;11.532;2024-03-23T08:43:24;1.50;;;1.27;;
15679;SDS011;15488;48.114;11.532;2024-03-23T08:45:52;2.17;;;1.50;;
15679;SDS011;15488;48.114;11.532;2024-03-23T08:48:20;1.20;;;1.10;;
15679;SDS011;15488;48.114;11.532;2024-03-23T08:50:57;1.40;;;1.00;;
15679;SDS011;15488;48.114;11.532;2024-03-23T08:53:27;1.67;;;1.20;;
15679;SDS011;15488;48.114;11.532;2024-03-23T08:55:56;1.57;;;1.40;;
15679;SDS011;15488;48.114;11.532;2024-03-23T08:58:24;2.50;;;1.53;;
15679;SDS011;15488;48.114;11.532;2024-03-23T09:00:51;1.80;;;1.60;;
15679;SDS011;15488;48.114;11.532;2024-03-23T09:03:21;1.57;;;1.30;;
15679;SDS011;15488;48.114;11.532;2024-03-23T09:05:48;1.93;;;1.73;;
15679;SDS011;15488;48.114;11.532;2024-03-23T09:08:16;4.87;;;3.37;;
15679;SDS011;15488;48.114;11.532;2024-03-23T09:10:42;2.73;;;1.90;;
15679;SDS011;15488;48.114;11.532;2024-03-23T09:13:12;2.60;;;2.10;;
15679;SDS011;15488;48.114;11.532;2024-03-23T09:15:45;3.77;;;2.90;;
15679;SDS011;15488;48.114;11.532;2024-03-23T09:18:14;7.10;;;5.00;;
15679;SDS011;15488;48.114;11.532;2024-03-23T09:20:40;2.93;;;2.10;;
15679;SDS011;15488;48.114;11.532;2024-03-23T09:23:08;1.60;;;1.30;;
15679;SDS011;15488;48.114;11.532;2024-03-23T09:25:38;2.23;;;1.70;;
15679;SDS011;15488;48.114;11.532;2024-03-23T09:28:06;2.60;;;1.43;;
15679;SDS011;15488;48.114;11.532;2024-03-23T09:30:35;1.63;;;1.47;;
15679;SDS011;15488;48.114;11.532;2024-03-23T09:33:07;2.60;;;1.67;;
15679;SDS011;15488;48.114;11.532;2024-03-23T09:35:36;1.87;;;1.20;;
15679;SDS011;15488;48.114;11.532;2024-03-23T09:38:04;1.70;;;1.10;;
15679;SDS011;15488;48.114;11.532;2024-03-23T09:40:32;2.83;;;1.10;;
15679;SDS011;15488;48.114;11.532;2024-03-23T09:43:00;1.80;;;1.07;;
15679;SDS011;15488;48.114;11.532;2024-03-23T09:45:27;1.97;;;0.80;;
15679;SDS011;15488;48.114;11.532;2024-03-23T09:47:57;0.90;;;0.70;;
15679;SDS011;15488;48.114;11.532;2024-03-23T09:50:23;1.77;;;0.70;;
15679;SDS011;15488;48.114;11.532;2024-03-23T09:52:51;1.67;;;1.07;;
15679;SDS011;15488;48.114;11.532;2024-03-23T09:55:18;1.10;;;1.00;;
15679;SDS011;15488;48.114;11.532;2024-03-23T09:57:46;1.30;;;0.50;;
15679;SDS011;15488;48.114;11.532;2024-03-23T10:00:13;1.17;;;0.87;;
15679;SDS011;15488;48.114;11.532;2024-03-23T10:02:41;1.90;;;0.70;;
15679;SDS011;15488;48.114;11.532;2024-03-23T10:05:20;0.70;;;0.53;;
15679;SDS011;15488;48.114;11.532;2024-03-23T10:07:48;0.77;;;0.50;;
15679;SDS011;15488;48.114;11.532;2024-03-23T10:10:16;0.93;;;0.77;;
15679;SDS011;15488;48.114;11.532;2024-03-23T10:12:45;1.00;;;0.90;;
15679;SDS011;15488;48.114;11.532;2024-03-23T10:15:17;2.50;;;1.40;;
15679;SDS011;15488;48.114;11.532;2024-03-23T10:17:46;0.90;;;0.70;;
15679;SDS011;15488;48.114;11.532;2024-03-23T10:20:13;1.40;;;0.67;;
15679;SDS011;15488;48.114;11.532;2024-03-23T10:22:47;0.50;;;0.50;;
15679;SDS011;15488;48.114;11.532;2024-03-23T10:25:14;1.00;;;0.60;;
15679;SDS011;15488;48.114;11.532;2024-03-23T10:27:42;0.90;;;0.63;;
15679;SDS011;15488;48.114;11.532;2024-03-23T10:30:09;0.93;;;0.70;;
15679;SDS011;15488;48.114;11.532;2024-03-23T10:32:38;0.90;;;0.60;;
15679;SDS011;15488;48.114;11.532;2024-03-23T10:35:15;0.93;;;0.80;;
15679;SDS011;15488;48.114;11.532;2024-03-23T10:37:45;1.27;;;0.60;;
15679;SDS011;15488;48.114;11.532;2024-03-23T10:40:14;0.73;;;0.50;;
15679;SDS011;15488;48.114;11.532;2024-03-23T10:42:43;2.03;;;0.70;;
15679;SDS011;15488;48.114;11.532;2024-03-23T10:45:10;0.70;;;0.40;;
15679;SDS011;15488;48.114;11.532;2024-03-23T10:47:38;0.30;;;0.30;;
15679;SDS011;15488;48.114;11.532;2024-03-23T10:50:05;0.40;;;0.40;;
15679;SDS011;15488;48.114;11.532;2024-03-23T10:52:33;1.17;;;0.37;;
15679;SDS011;15488;48.114;11.532;2024-03-23T10:55:02;0.30;;;0.30;;
15679;SDS011;15488;48.114;11.532;2024-03-23T10:57:34;0.40;;;0.40;;
15679;SDS011;15488;48.114;11.532;2024-03-23T11:00:06;0.67;;;0.30;;
15679;SDS011;15488;48.114;11.532;2024-03-23T11:02:36;1.77;;;0.40;;
15679;SDS011;15488;48.114;11.532;2024-03-23T11:05:10;0.30;;;0.30;;
15679;SDS011;15488;48.114;11.532;2024-03-23T11:07:56;0.40;;;0.40;;
15679;SDS011;15488;48.114;11.532;2024-03-23T11:10:28;0.80;;;0.37;;
15679;SDS011;15488;48.114;11.532;2024-03-23T11:12:58;1.10;;;0.40;;
15679;SDS011;15488;48.114;11.532;2024-03-23T11:15:45;1.23;;;0.47;;
15679;SDS011;15488;48.114;11.532;2024-03-23T11:18:13;0.83;;;0.60;;
15679;SDS011;15488;48.114;11.532;2024-03-23T11:20:46;0.63;;;0.40;;
15679;SDS011;15488;48.114;11.532;2024-03-23T11:23:25;0.83;;;0.60;;
15679;SDS011;15488;48.114;11.532;2024-03-23T11:25:54;0.90;;;0.70;;
15679;SDS011;15488;48.114;11.532;2024-03-23T11:28:22;0.60;;;0.40;;
15679;SDS011;15488;48.114;11.532;2024-03-23T11:30:49;1.13;;;0.60;;
15679;SDS011;15488;48.114;11.532;2024-03-23T11:33:17;0.60;;;0.60;;
15679;SDS011;15488;48.114;11.532;2024-03-23T11:35:43;1.13;;;0.50;;
15679;SDS011;15488;48.114;11.532;2024-03-23T11:38:12;0.80;;;0.80;;
15679;SDS011;15488;48.114;11.532;2024-03-23T11:40:39;1.20;;;0.80;;
15679;SDS011;15488;48.114;11.532;2024-03-23T11:43:10;1.90;;;0.80;;
15679;SDS011;15488;48.114;11.532;2024-03-23T11:45:38;1.33;;;0.67;;
15679;SDS011;15488;48.114;11.532;2024-03-23T11:48:07;1.67;;;1.30;;
15679;SDS011;15488;48.114;11.532;2024-03-23T11:50:36;1.87;;;0.87;;
15679;SDS011;15488;48.114;11.532;2024-03-23T11:53:12;1.17;;;0.60;;
15679;SDS011;15488;48.114;11.532;2024-03-23T11:55:41;1.60;;;0.80;;
15679;SDS011;15488;48.114;11.532;2024-03-23T11:58:12;1.07;;;0.80;;
15679;SDS011;15488;48.114;11.532;2024-03-23T12:00:39;1.47;;;0.87;;
15679;SDS011;15488;48.114;11.532;2024-03-23T12:03:07;1.80;;;0.70;;
15679;SDS011;15488;48.114;11.532;2024-03-23T12:05:35;0.63;;;0.60;;
15679;SDS011;15488;48.114;11.532;2024-03-23T12:08:22;1.70;;;0.83;;
15679;SDS011;15488;48.114;11.532;2024-03-23T12:10:50;1.23;;;0.90;;
15679;SDS011;15488;48.114;11.532;2024-03-23T12:13:21;3.17;;;0.90;;
15679;SDS011;15488;48.114;11.532;2024-03-23T12:15:49;2.30;;;0.87;;
15679;SDS011;15488;48.114;11.532;2024-03-23T12:18:17;2.03;;;1.13;;
15679;SDS011;15488;48.114;11.532;2024-03-23T12:20:49;3.10;;;1.70;;
15679;SDS011;15488;48.114;11.532;2024-03-23T12:23:17;1.97;;;1.20;;
15679;SDS011;15488;48.114;11.532;2024-03-23T12:25:46;1.73;;;1.23;;
15679;SDS011;15488;48.114;11.532;2024-03-23T12:28:16;1.70;;;1.40;;
15679;SDS011;15488;48.114;11.532;2024-03-23T12:30:44;1.90;;;1.40;;
15679;SDS011;15488;48.114;11.532;2024-03-23T12:33:12;2.17;;;1.53;;
15679;SDS011;15488;48.114;11.532;2024-03-23T12:35:38;1.73;;;1.33;;
15679;SDS011;15488;48.114;11.532;2024-03-23T12:38:06;2.23;;;1.57;;
15679;SDS011;15488;48.114;11.532;2024-03-23T12:40:33;1.80;;;1.43;;
15679;SDS011;15488;48.114;11.532;2024-03-23T12:43:01;2.87;;;1.57;;
15679;SDS011;15488;48.114;11.532;2024-03-23T12:45:27;2.40;;;1.60;;
15679;SDS011;15488;48.114;11.532;2024-03-23T12:47:56;2.53;;;1.40;;
15679;SDS011;15488;48.114;11.532;2024-03-23T12:50:23;2.40;;;1.90;;
15679;SDS011;15488;48.114;11.532;2024-03-23T12:52:51;2.60;;;1.50;;
15679;SDS011;15488;48.114;11.532;2024-03-23T12:55:18;1.80;;;1.30;;
15679;SDS011;15488;48.114;11.532;2024-03-23T12:57:45;2.13;;;1.50;;
15679;SDS011;15488;48.114;11.532;2024-03-23T13:00:13;3.50;;;1.43;;
15679;SDS011;15488;48.114;11.532;2024-03-23T13:02:42;2.77;;;1.40;;
15679;SDS011;15488;48.114;11.532;2024-03-23T13:05:11;2.37;;;1.20;;
15679;SDS011;15488;48.114;11.532;2024-03-23T13:07:39;1.70;;;1.40;;
15679;SDS011;15488;48.114;11.532;2024-03-23T13:10:06;2.63;;;1.47;;
15679;SDS011;15488;48.114;11.532;2024-03-23T13:12:35;1.87;;;1.40;;
15679;SDS011;15488;48.114;11.532;2024-03-23T13:15:02;2.37;;;1.63;;
15679;SDS011;15488;48.114;11.532;2024-03-23T13:17:30;2.03;;;1.10;;
15679;SDS011;15488;48.114;11.532;2024-03-23T13:19:57;4.67;;;1.43;;
15679;SDS011;15488;48.114;11.532;2024-03-23T13:22:26;3.70;;;1.57;;
15679;SDS011;15488;48.114;11.532;2024-03-23T13:24:53;2.37;;;1.33;;
15679;SDS011;15488;48.114;11.532;2024-03-23T13:27:21;3.07;;;1.50;;
15679;SDS011;15488;48.114;11.532;2024-03-23T13:29:48;1.83;;;1.40;;
15679;SDS011;15488;48.114;11.532;2024-03-23T13:32:15;2.60;;;1.27;;
15679;SDS011;15488;48.114;11.532;2024-03-23T13:34:42;4.10;;;1.40;;
15679;SDS011;15488;48.114;11.532;2024-03-23T13:37:10;1.73;;;1.30;;
15679;SDS011;15488;48.114;11.532;2024-03-23T13:39:38;3.20;;;1.47;;
15679;SDS011;15488;48.114;11.532;2024-03-23T13:42:07;2.67;;;1.80;;
15679;SDS011;15488;48.114;11.532;2024-03-23T13:44:34;4.13;;;1.50;;
15679;SDS011;15488;48.114;11.532;2024-03-23T13:47:02;2.33;;;1.47;;
15679;SDS011;15488;48.114;11.532;2024-03-23T13:49:29;2.07;;;1.60;;
15679;SDS011;15488;48.114;11.532;2024-03-23T13:51:58;3.90;;;1.77;;
15679;SDS011;15488;48.114;11.532;2024-03-23T13:54:25;2.30;;;1.40;;
15679;SDS011;15488;48.114;11.532;2024-03-23T13:56:55;2.00;;;1.50;;
15679;SDS011;15488;48.114;11.532;2024-03-23T13:59:22;3.10;;;1.60;;
15679;SDS011;15488;48.114;11.532;2024-03-23T14:01:50;3.03;;;1.70;;
15679;SDS011;15488;48.114;11.532;2024-03-23T14:04:17;2.03;;;1.70;;
15679;SDS011;15488;48.114;11.532;2024-03-23T14:06:45;4.17;;;1.80;;
15679;SDS011;15488;48.114;11.532;2024-03-23T14:09:12;2.40;;;1.70;;
15679;SDS011;15488;48.114;11.532;2024-03-23T14:11:45;3.13;;;1.83;;
15679;SDS011;15488;48.114;11.532;2024-03-23T14:14:13;2.57;;;1.80;;
15679;SDS011;15488;48.114;11.532;2024-03-23T14:16:42;3.37;;;2.00;;
15679;SDS011;15488;48.114;11.532;2024-03-23T14:19:09;3.40;;;1.90;;
15679;SDS011;15488;48.114;11.532;2024-03-23T14:21:37;3.37;;;2.10;;
15679;SDS011;15488;48.114;11.532;2024-03-23T14:24:04;3.70;;;2.00;;
15679;SDS011;15488;48.114;11.532;2024-03-23T14:26:32;2.77;;;2.20;;
15679;SDS011;15488;48.114;11.532;2024-03-23T14:28:59;2.60;;;1.77;;
15679;SDS011;15488;48.114;11.532;2024-03-23T14:31:29;3.10;;;2.00;;
15679;SDS011;15488;48.114;11.532;2024-03-23T14:33:56;3.43;;;2.03;;
15679;SDS011;15488;48.114;11.532;2024-03-23T14:36:24;3.07;;;1.90;;
15679;SDS011;15488;48.114;11.532;2024-03-23T14:38:53;3.27;;;1.70;;
15679;SDS011;15488;48.114;11.532;2024-03-23T14:41:20;3.87;;;2.10;;
15679;SDS011;15488;48.114;11.532;2024-03-23T14:43:47;3.93;;;2.23;;
15679;SDS011;15488;48.114;11.532;2024-03-23T14:46:16;4.30;;;2.30;;
15679;SDS011;15488;48.114;11.532;2024-03-23T14:48:44;3.00;;;1.60;;
15679;SDS011;15488;48.114;11.532;2024-03-23T14:51:12;1.90;;;1.47;;
15679;SDS011;15488;48.114;11.532;2024-03-23T14:53:39;2.60;;;1.50;;
15679;SDS011;15488;48.114;11.532;2024-03-23T14:56:08;3.03;;;1.53;;
15679;SDS011;15488;48.114;11.532;2024-03-23T14:58:37;2.30;;;1.40;;
15679;SDS011;15488;48.114;11.532;2024-03-23T15:01:06;1.73;;;1.07;;
15679;SDS011;15488;48.114;11.532;2024-03-23T15:03:34;4.40;;;1.47;;
15679;SDS011;15488;48.114;11.532;2024-03-23T15:06:05;1.93;;;1.20;;
15679;SDS011;15488;48.114;11.532;2024-03-23T15:08:34;2.93;;;0.97;;
15679;SDS011;15488;48.114;11.532;2024-03-23T15:11:03;2.27;;;1.20;;
15679;SDS011;15488;48.114;11.532;2024-03-23T15:13:30;5.37;;;2.93;;
15679;SDS011;15488;48.114;11.532;2024-03-23T15:15:58;5.23;;;3.37;;
15679;SDS011;15488;48.114;11.532;2024-03-23T15:18:25;2.77;;;1.83;;
15679;SDS011;15488;48.114;11.532;2024-03-23T15:20:54;3.37;;;1.70;;
15679;SDS011;15488;48.114;11.532;2024-03-23T15:23:22;2.93;;;1.30;;
15679;SDS011;15488;48.114;11.532;2024-03-23T15:25:59;4.97;;;1.33;;
15679;SDS011;15488;48.114;11.532;2024-03-23T15:28:26;2.77;;;1.33;;
15679;SDS011;15488;48.114;11.532;2024-03-23T15:31:03;3.50;;;1.40;;
15679;SDS011;15488;48.114;11.532;2024-03-23T15:33:30;3.00;;;1.60;;